»·PEaware :: N2AA KPVF-KMEV

N2AA :: KPVF-KMEV

FLIGHT INFORMATION

Flight Status: Arrived
Operator: Privately registered:
United States
More flights under this callsign
Pilot: Dan A. (12711)
Aircraft: BEECH AIRCRAFT BEECH AIRLINER
(B190)
More flights by this aircraft type
Origin: KPVF Placerville
United States
Destination: KMEV Minden-Tahoe
United States
More flights between these airports :: More routes between these airports
Route: VFR
File this flight plan on PilotEdge
Remarks:
Altitude:
(Current/Filed)
13,500ft
Speed:
(Current/Filed)
160kts
Departed: 14-May-18 12:39 PM
Arrived: 14-May-18 12:58 PM
Distance/Time
Traveled:
54nm/0:19
Distance/Time
To Go:
Arrived

Flight Plot

Page will automatically refresh every two minutes.

Flight plan parsing failed; only flown route is shown


Map Options




Map Legend


Flown Route
Filed Route
Departure Airport
Arrival Airport
Navaid (VOR, NDB)
Fix

Horizontal Profiles

Position Reports

Time Latitude Longitude Heading Altitude Ground
Speed
14-May-18 11:57 38.695206 -120.727521 0 2604ft 0kts
14-May-18 11:58 38.695206 -120.727521 0 2604ft 0kts
14-May-18 11:59 38.695208 -120.727521 0 2604ft 0kts
14-May-18 12:00 38.695211 -120.727521 359 2604ft 0kts
14-May-18 12:01 38.695212 -120.727521 359 2604ft 0kts
14-May-18 12:02 38.695212 -120.727521 0 2604ft 0kts
14-May-18 12:03 38.695213 -120.727521 359 2604ft 0kts
14-May-18 12:04 38.695214 -120.727521 359 2604ft 0kts
14-May-18 12:05 38.695214 -120.727521 359 2604ft 0kts
14-May-18 12:06 38.695214 -120.727521 359 2604ft 0kts
14-May-18 12:07 38.695215 -120.727521 359 2604ft 0kts
14-May-18 12:08 38.695215 -120.727521 0 2604ft 0kts
14-May-18 12:09 38.695215 -120.727521 0 2604ft 0kts
14-May-18 12:10 38.695215 -120.727521 0 2604ft 0kts
14-May-18 12:11 38.695215 -120.727521 0 2604ft 0kts
14-May-18 12:12 38.695215 -120.727521 0 2604ft 0kts
14-May-18 12:13 38.695215 -120.727521 0 2604ft 0kts
14-May-18 12:14 38.695215 -120.727521 0 2604ft 0kts
14-May-18 12:15 38.695215 -120.727521 0 2604ft 0kts
14-May-18 12:16 38.695215 -120.727521 0 2604ft 0kts
14-May-18 12:17 38.695215 -120.727521 0 2604ft 0kts
14-May-18 12:18 38.695215 -120.727521 0 2604ft 0kts
14-May-18 12:19 38.695215 -120.727521 0 2604ft 0kts
14-May-18 12:20 38.695216 -120.727521 0 2604ft 0kts
14-May-18 12:21 38.695127 -120.730054 252 2604ft 37kts
14-May-18 12:22 38.695069 -120.731122 307 2604ft 0kts
14-May-18 12:23 38.695069 -120.731123 307 2604ft 0kts
14-May-18 12:24 38.695123 -120.731222 299 2604ft 2kts
14-May-18 12:25 38.695883 -120.734788 294 2604ft 9kts
14-May-18 12:26 38.696997 -120.734963 93 2604ft 11kts
14-May-18 12:27 38.696880 -120.734673 133 2604ft 0kts
14-May-18 12:28 38.696879 -120.734672 133 2604ft 0kts
14-May-18 12:29 38.696879 -120.734672 133 2604ft 0kts
14-May-18 12:30 38.696878 -120.734671 133 2604ft 0kts
14-May-18 12:31 38.696878 -120.734670 133 2604ft 0kts
14-May-18 12:32 38.696877 -120.734670 133 2604ft 0kts
14-May-18 12:33 38.696877 -120.734669 133 2604ft 0kts
14-May-18 12:34 38.696876 -120.734668 133 2604ft 0kts
14-May-18 12:35 38.696876 -120.734668 133 2604ft 0kts
14-May-18 12:36 38.696683 -120.734487 137 2604ft 2kts
14-May-18 12:37 38.696580 -120.734269 110 2604ft 0kts
14-May-18 12:38 38.696579 -120.734268 110 2604ft 0kts
14-May-18 12:39 38.693323 -120.707621 106 3486ft 138kts
14-May-18 12:40 38.699293 -120.655508 76 5753ft 165kts
14-May-18 12:41 38.704867 -120.593594 84 7797ft 181kts
14-May-18 12:42 38.709286 -120.528439 84 9807ft 185kts
14-May-18 12:43 38.713541 -120.463405 87 11788ft 176kts
14-May-18 12:44 38.717493 -120.402549 90 13512ft 180kts
14-May-18 12:45 38.722366 -120.324101 85 13563ft 252kts
14-May-18 12:46 38.728430 -120.229823 87 13560ft 275kts
14-May-18 12:47 38.734511 -120.132992 89 13559ft 267kts
14-May-18 12:48 38.740217 -120.039552 89 13559ft 260kts
14-May-18 12:49 38.745715 -119.947252 85 13161ft 255kts
14-May-18 12:50 38.750606 -119.864038 84 12149ft 223kts
14-May-18 12:51 38.755014 -119.788830 84 11141ft 198kts
14-May-18 12:52 38.758899 -119.722837 85 10157ft 184kts
14-May-18 12:53 38.762727 -119.657295 88 9405ft 178kts
14-May-18 12:54 38.778087 -119.599814 17 8940ft 191kts
14-May-18 12:55 38.829765 -119.609053 352 8485ft 186kts
14-May-18 12:56 38.879489 -119.615412 358 7590ft 168kts
14-May-18 12:57 38.918650 -119.619011 358 6127ft 133kts
14-May-18 12:58 38.943167 -119.622695 200 5264ft 14kts

Navigation Log

Ident Type
Flight plan parsing failed, navigation log unavailable